Time;durP1;ratioP1;P1;durP2;ratioP2;P2;SDS_P1;SDS_P2;PMS_P1;PMS_P2;Temp;Humidity;BMP_temperature;BMP_pressure;BME280_temperature;BME280_humidity;BME280_pressure;Samples;Min_cycle;Max_cycle;Signal;HPM_P1;HPM_P2
2023/06/16 00:01:31;;;;;;;3.05;2.10;;;;;;;;;;5010027;28;20366;-77
2023/06/16 00:03:59;;;;;;;2.55;1.60;;;;;;;;;;5023737;28;20034;-78
2023/06/16 00:06:29;;;;;;;2.22;1.52;;;;;;;;;;5013403;28;20048;-78
2023/06/16 00:08:56;;;;;;;1.95;1.40;;;;;;;;;;5028676;28;20029;-78
2023/06/16 00:11:22;;;;;;;1.65;1.50;;;;;;;;;;5028429;28;20025;-78
2023/06/16 00:13:49;;;;;;;1.30;1.10;;;;;;;;;;5028408;28;20033;-78
2023/06/16 00:16:19;;;;;;;1.35;1.25;;;;;;;;;;5019106;28;20026;-78
2023/06/16 00:18:45;;;;;;;1.65;1.35;;;;;;;;;;5028307;28;20112;-78
2023/06/16 00:21:13;;;;;;;1.67;1.42;;;;;;;;;;5020415;28;20053;-78
2023/06/16 00:23:39;;;;;;;2.05;1.40;;;;;;;;;;5015047;28;20068;-78
2023/06/16 00:26:05;;;;;;;1.40;1.30;;;;;;;;;;5025079;28;20036;-78
2023/06/16 00:28:31;;;;;;;1.83;1.40;;;;;;;;;;5012307;28;20030;-78
2023/06/16 00:30:59;;;;;;;1.55;1.33;;;;;;;;;;5021709;28;20087;-79
2023/06/16 00:33:25;;;;;;;1.55;1.33;;;;;;;;;;5023232;28;20032;-79
2023/06/16 00:35:51;;;;;;;1.48;1.38;;;;;;;;;;5017874;28;20022;-78
2023/06/16 00:38:17;;;;;;;1.35;1.02;;;;;;;;;;5010409;28;20064;-79
2023/06/16 00:40:43;;;;;;;1.88;1.35;;;;;;;;;;5024093;28;20115;-79
2023/06/16 00:43:09;;;;;;;1.92;1.40;;;;;;;;;;5013376;28;20032;-79
2023/06/16 00:45:35;;;;;;;1.73;1.40;;;;;;;;;;5015993;28;20076;-79
2023/06/16 00:48:01;;;;;;;1.52;1.25;;;;;;;;;;5032529;28;20485;-79
2023/06/16 00:50:27;;;;;;;1.40;1.25;;;;;;;;;;5027945;28;20040;-79
2023/06/16 00:52:54;;;;;;;2.92;1.63;;;;;;;;;;5020620;28;20038;-79
2023/06/16 00:55:23;;;;;;;2.15;1.50;;;;;;;;;;5012073;28;20448;-79
2023/06/16 00:57:55;;;;;;;1.63;1.40;;;;;;;;;;5012890;28;20041;-79
2023/06/16 01:00:21;;;;;;;4.63;1.73;;;;;;;;;;5025277;28;20392;-79
2023/06/16 01:02:48;;;;;;;2.15;1.27;;;;;;;;;;5030088;28;20030;-78
2023/06/16 01:05:16;;;;;;;2.42;1.50;;;;;;;;;;5029929;28;20033;-78
2023/06/16 01:07:51;;;;;;;2.08;1.63;;;;;;;;;;5032126;28;20030;-79
2023/06/16 01:10:44;;;;;;;1.67;1.30;;;;;;;;;;5020694;28;20034;-79
2023/06/16 01:13:10;;;;;;;2.90;1.45;;;;;;;;;;5024267;28;20046;-79
2023/06/16 01:15:57;;;;;;;2.22;1.40;;;;;;;;;;5031671;28;20028;-79
2023/06/16 01:18:25;;;;;;;2.22;1.17;;;;;;;;;;5033585;28;20048;-79
2023/06/16 01:21:05;;;;;;;2.00;1.40;;;;;;;;;;5040205;28;20049;-79
2023/06/16 01:23:52;;;;;;;1.85;1.40;;;;;;;;;;5040626;28;20017;-78
2023/06/16 01:26:22;;;;;;;1.80;1.27;;;;;;;;;;5036074;28;20034;-79
2023/06/16 01:28:49;;;;;;;1.85;1.30;;;;;;;;;;5043972;28;21925;-78
2023/06/16 01:31:17;;;;;;;1.67;1.10;;;;;;;;;;5040871;28;20029;-79
2023/06/16 01:33:46;;;;;;;1.58;1.10;;;;;;;;;;5045375;28;20025;-80
2023/06/16 01:36:30;;;;;;;1.85;1.20;;;;;;;;;;5032078;28;20018;-79
2023/06/16 01:39:06;;;;;;;2.58;1.50;;;;;;;;;;5048551;28;20038;-79
2023/06/16 01:41:39;;;;;;;2.15;1.27;;;;;;;;;;5047130;28;20031;-79
2023/06/16 01:44:10;;;;;;;1.70;1.33;;;;;;;;;;5032353;28;20041;-78
2023/06/16 01:46:52;;;;;;;1.58;1.48;;;;;;;;;;5042658;28;20030;-79
2023/06/16 01:49:21;;;;;;;1.40;1.30;;;;;;;;;;5041097;28;20042;-79
2023/06/16 01:51:52;;;;;;;1.63;1.40;;;;;;;;;;5041042;28;20069;-79
2023/06/16 01:54:18;;;;;;;1.45;1.30;;;;;;;;;;5022865;28;20110;-79
2023/06/16 01:56:44;;;;;;;1.55;1.42;;;;;;;;;;5017890;28;20030;-79
2023/06/16 01:59:10;;;;;;;1.80;1.23;;;;;;;;;;5026554;28;20029;-79
2023/06/16 02:01:50;;;;;;;2.40;1.50;;;;;;;;;;5024606;28;20037;-79
2023/06/16 02:10:24;;;;;;;2.40;1.20;;;;;;;;;;5027437;28;20056;-79
2023/06/16 02:12:50;;;;;;;2.72;1.30;;;;;;;;;;5021080;28;20153;-79
2023/06/16 02:15:18;;;;;;;1.35;1.10;;;;;;;;;;5017816;28;20112;-79
2023/06/16 02:17:44;;;;;;;1.85;1.40;;;;;;;;;;5028878;28;20468;-79
2023/06/16 02:20:11;;;;;;;1.52;1.42;;;;;;;;;;5026029;28;20517;-79
2023/06/16 02:22:37;;;;;;;1.88;1.35;;;;;;;;;;5015401;28;20030;-79
2023/06/16 02:25:03;;;;;;;1.60;1.00;;;;;;;;;;5013529;28;20034;-79
2023/06/16 02:27:29;;;;;;;1.50;1.30;;;;;;;;;;5021215;28;20028;-79
2023/06/16 02:29:55;;;;;;;1.88;1.48;;;;;;;;;;5030086;28;20503;-79
2023/06/16 02:32:21;;;;;;;1.42;1.30;;;;;;;;;;5018009;28;20030;-79
2023/06/16 02:34:47;;;;;;;2.90;1.45;;;;;;;;;;5015047;28;20030;-79
2023/06/16 02:37:16;;;;;;;2.05;1.60;;;;;;;;;;5017669;28;20080;-80
2023/06/16 02:39:42;;;;;;;1.80;1.05;;;;;;;;;;5027767;28;20064;-79
2023/06/16 02:42:08;;;;;;;1.15;1.00;;;;;;;;;;5029690;28;20494;-79
2023/06/16 02:44:34;;;;;;;2.33;1.30;;;;;;;;;;5013443;28;20032;-79
2023/06/16 02:47:01;;;;;;;2.88;1.70;;;;;;;;;;5011618;28;20026;-79
2023/06/16 02:49:27;;;;;;;1.17;1.08;;;;;;;;;;5025465;28;20572;-79
2023/06/16 02:51:53;;;;;;;3.78;1.55;;;;;;;;;;5024463;28;20057;-79
2023/06/16 02:54:19;;;;;;;1.83;1.38;;;;;;;;;;5027295;28;20037;-79
2023/06/16 02:56:45;;;;;;;1.65;1.10;;;;;;;;;;5026846;28;20025;-79
2023/06/16 02:59:11;;;;;;;3.90;1.52;;;;;;;;;;5010441;28;20483;-79
2023/06/16 03:01:37;;;;;;;2.30;1.42;;;;;;;;;;5023463;28;20583;-79
2023/06/16 03:04:04;;;;;;;2.45;1.38;;;;;;;;;;5015227;28;20045;-79
2023/06/16 03:06:34;;;;;;;1.52;1.35;;;;;;;;;;5021007;28;20087;-79
2023/06/16 03:09:03;;;;;;;2.35;1.23;;;;;;;;;;5020927;28;20117;-79
2023/06/16 03:11:29;;;;;;;1.63;1.25;;;;;;;;;;5010823;28;20045;-79
2023/06/16 03:13:57;;;;;;;1.88;1.17;;;;;;;;;;5026337;28;20488;-79
2023/06/16 03:16:27;;;;;;;1.38;1.23;;;;;;;;;;5029096;28;20025;-79
2023/06/16 03:18:53;;;;;;;1.30;1.20;;;;;;;;;;5020223;28;20400;-79
2023/06/16 03:21:19;;;;;;;1.27;1.10;;;;;;;;;;5021646;28;20192;-79
2023/06/16 03:23:45;;;;;;;1.77;1.30;;;;;;;;;;5012255;28;20432;-79
2023/06/16 03:26:12;;;;;;;2.05;1.38;;;;;;;;;;5016555;28;20389;-79
2023/06/16 03:28:38;;;;;;;3.35;1.50;;;;;;;;;;5027504;28;20435;-79
2023/06/16 03:31:04;;;;;;;2.55;1.13;;;;;;;;;;5022953;28;20026;-79
2023/06/16 03:33:31;;;;;;;1.67;1.52;;;;;;;;;;5010929;28;20040;-79
2023/06/16 03:35:57;;;;;;;1.73;1.08;;;;;;;;;;5024354;28;20028;-79
2023/06/16 03:38:23;;;;;;;2.50;1.50;;;;;;;;;;5028505;28;20166;-79
2023/06/16 03:40:49;;;;;;;1.23;1.13;;;;;;;;;;5025991;28;20690;-79
2023/06/16 03:43:15;;;;;;;1.65;1.10;;;;;;;;;;5018260;28;20026;-79
2023/06/16 03:45:41;;;;;;;1.77;1.48;;;;;;;;;;5015398;28;20022;-79
2023/06/16 03:48:07;;;;;;;3.10;1.60;;;;;;;;;;5018991;28;20022;-80
2023/06/16 03:50:33;;;;;;;3.63;1.60;;;;;;;;;;5024692;28;20057;-79
2023/06/16 03:53:00;;;;;;;1.50;1.30;;;;;;;;;;5020399;28;20030;-79
2023/06/16 03:55:26;;;;;;;1.35;1.25;;;;;;;;;;5009742;28;20084;-79
2023/06/16 03:57:52;;;;;;;1.48;1.02;;;;;;;;;;5010841;28;20026;-79
2023/06/16 04:00:18;;;;;;;1.20;1.10;;;;;;;;;;5013922;28;20087;-79
2023/06/16 04:02:44;;;;;;;2.55;1.30;;;;;;;;;;5009056;28;20112;-80
2023/06/16 04:05:10;;;;;;;0.98;0.82;;;;;;;;;;5016461;28;20510;-79
2023/06/16 04:07:36;;;;;;;1.38;1.25;;;;;;;;;;5027678;28;20033;-79
2023/06/16 04:10:03;;;;;;;2.78;1.42;;;;;;;;;;5028118;28;20260;-79
2023/06/16 04:12:29;;;;;;;3.40;2.05;;;;;;;;;;5025891;28;20108;-80
2023/06/16 04:14:54;;;;;;;2.25;1.50;;;;;;;;;;5016739;28;20088;-79
2023/06/16 04:17:20;;;;;;;1.00;0.90;;;;;;;;;;5008617;28;20623;-79
2023/06/16 04:19:46;;;;;;;3.63;1.45;;;;;;;;;;5016293;28;20575;-79
2023/06/16 04:22:13;;;;;;;1.80;1.50;;;;;;;;;;5019498;28;20118;-85
2023/06/16 04:24:39;;;;;;;1.60;1.40;;;;;;;;;;5032700;28;20025;-81
2023/06/16 04:27:06;;;;;;;1.77;1.40;;;;;;;;;;5029710;28;20029;-82
2023/06/16 04:29:32;;;;;;;1.27;1.15;;;;;;;;;;5017070;28;20053;-83
2023/06/16 04:31:59;;;;;;;1.48;1.30;;;;;;;;;;5021791;28;20380;-80
2023/06/16 04:34:25;;;;;;;6.00;1.60;;;;;;;;;;5018341;28;20539;-84
2023/06/16 04:36:51;;;;;;;1.30;1.20;;;;;;;;;;5015321;28;20026;-86
2023/06/16 04:39:17;;;;;;;2.00;1.50;;;;;;;;;;5022624;28;20038;-77
2023/06/16 04:41:43;;;;;;;2.33;1.20;;;;;;;;;;5024518;28;20064;-80
2023/06/16 04:44:09;;;;;;;1.13;1.02;;;;;;;;;;5021627;28;20350;-81
2023/06/16 04:46:36;;;;;;;1.55;1.42;;;;;;;;;;5026449;28;20025;-81
2023/06/16 04:49:03;;;;;;;2.22;1.30;;;;;;;;;;5010326;28;20057;-81
2023/06/16 04:51:29;;;;;;;2.38;1.23;;;;;;;;;;5027465;28;20112;-78
2023/06/16 04:53:56;;;;;;;1.30;1.00;;;;;;;;;;5012970;28;20049;-78
2023/06/16 04:56:22;;;;;;;2.03;1.38;;;;;;;;;;5014018;28;20107;-78
2023/06/16 04:58:48;;;;;;;1.50;1.35;;;;;;;;;;5031889;28;20427;-78
2023/06/16 05:01:14;;;;;;;1.77;1.15;;;;;;;;;;5026134;28;20434;-78
2023/06/16 05:03:40;;;;;;;2.55;1.83;;;;;;;;;;5033269;28;20022;-78
2023/06/16 05:06:06;;;;;;;2.75;1.50;;;;;;;;;;5031702;28;20030;-78
2023/06/16 05:08:32;;;;;;;2.55;1.70;;;;;;;;;;5037929;28;20026;-77
2023/06/16 05:10:58;;;;;;;1.73;1.50;;;;;;;;;;5036861;28;20021;-79
2023/06/16 05:13:24;;;;;;;3.17;1.50;;;;;;;;;;5036374;28;20037;-78
2023/06/16 05:15:50;;;;;;;3.85;1.23;;;;;;;;;;5036622;28;20078;-78
2023/06/16 05:18:16;;;;;;;2.55;1.25;;;;;;;;;;5039177;28;20028;-78
2023/06/16 05:20:42;;;;;;;2.10;1.48;;;;;;;;;;5033528;28;20041;-78
2023/06/16 05:23:08;;;;;;;3.60;1.65;;;;;;;;;;5032231;28;20037;-78
2023/06/16 05:25:34;;;;;;;2.75;1.80;;;;;;;;;;5032488;28;20028;-78
2023/06/16 05:28:00;;;;;;;4.40;1.63;;;;;;;;;;5031066;28;20029;-79
2023/06/16 05:30:26;;;;;;;1.92;1.20;;;;;;;;;;5036717;28;20033;-78
2023/06/16 05:32:52;;;;;;;3.45;1.55;;;;;;;;;;5034659;28;20546;-79
2023/06/16 05:35:18;;;;;;;2.72;1.58;;;;;;;;;;5034811;28;20403;-78
2023/06/16 05:37:44;;;;;;;1.65;1.55;;;;;;;;;;5035226;28;20361;-78
2023/06/16 05:40:10;;;;;;;3.03;1.70;;;;;;;;;;5034708;28;20071;-78
2023/06/16 05:42:36;;;;;;;2.22;1.58;;;;;;;;;;5032452;28;20021;-78
2023/06/16 05:45:02;;;;;;;3.53;1.48;;;;;;;;;;5031638;28;20044;-78
2023/06/16 05:47:28;;;;;;;3.20;1.73;;;;;;;;;;5028894;28;20047;-78
2023/06/16 05:49:56;;;;;;;2.20;1.55;;;;;;;;;;5034226;28;20025;-79
2023/06/16 05:52:22;;;;;;;2.20;1.77;;;;;;;;;;5037037;28;20712;-79
2023/06/16 05:54:48;;;;;;;1.98;1.52;;;;;;;;;;5036928;28;20021;-79
2023/06/16 05:57:14;;;;;;;2.30;1.73;;;;;;;;;;5035538;28;20033;-79
2023/06/16 05:59:40;;;;;;;1.83;1.58;;;;;;;;;;5025837;28;20472;-81
2023/06/16 06:02:06;;;;;;;4.00;1.40;;;;;;;;;;5018612;28;20374;-86
2023/06/16 06:04:33;;;;;;;2.50;1.45;;;;;;;;;;5025545;28;20497;-77
2023/06/16 06:07:00;;;;;;;1.48;1.30;;;;;;;;;;5021131;28;20029;-81
2023/06/16 06:09:26;;;;;;;1.30;1.20;;;;;;;;;;5023322;28;20056;-86
2023/06/16 06:11:53;;;;;;;2.25;1.70;;;;;;;;;;5028603;28;20472;-80
2023/06/16 06:14:19;;;;;;;2.40;1.80;;;;;;;;;;5021590;28;20041;-81
2023/06/16 06:16:45;;;;;;;3.42;1.38;;;;;;;;;;5007432;28;20030;-76
2023/06/16 06:19:11;;;;;;;1.90;1.60;;;;;;;;;;5022988;28;20053;-79
2023/06/16 06:21:38;;;;;;;2.90;1.85;;;;;;;;;;5028146;28;20045;-87
2023/06/16 06:24:05;;;;;;;3.17;2.20;;;;;;;;;;5024611;28;20393;-86
2023/06/16 06:26:31;;;;;;;2.45;1.67;;;;;;;;;;5020874;28;20029;-84
2023/06/16 06:28:57;;;;;;;3.35;2.00;;;;;;;;;;5021872;28;20112;-85
2023/06/16 06:31:23;;;;;;;2.50;1.70;;;;;;;;;;5010131;28;20045;-86
2023/06/16 06:33:49;;;;;;;2.90;1.60;;;;;;;;;;5026034;28;20506;-80
2023/06/16 06:36:22;;;;;;;2.55;1.40;;;;;;;;;;5021078;28;20473;-81
2023/06/16 06:38:48;;;;;;;2.88;1.58;;;;;;;;;;5014912;28;20026;-81
2023/06/16 06:41:16;;;;;;;1.67;1.50;;;;;;;;;;5010243;28;20029;-83
2023/06/16 06:43:42;;;;;;;2.28;1.65;;;;;;;;;;5010233;28;20022;-81
2023/06/16 06:46:08;;;;;;;2.60;1.70;;;;;;;;;;5017129;28;20025;-86
2023/06/16 06:48:34;;;;;;;2.28;1.42;;;;;;;;;;5015326;28;20025;-81
2023/06/16 06:51:00;;;;;;;4.45;1.73;;;;;;;;;;5025264;28;20109;-80
2023/06/16 06:53:26;;;;;;;4.68;1.48;;;;;;;;;;5029608;28;20048;-78
2023/06/16 06:55:52;;;;;;;2.25;1.35;;;;;;;;;;5021247;28;20022;-83
2023/06/16 06:58:18;;;;;;;2.42;1.45;;;;;;;;;;5023056;28;20105;-84
2023/06/16 07:00:43;;;;;;;2.17;1.42;;;;;;;;;;5021750;28;20030;-83
2023/06/16 07:03:11;;;;;;;2.50;1.42;;;;;;;;;;5007859;28;20029;-85
2023/06/16 07:05:37;;;;;;;1.90;1.50;;;;;;;;;;5022745;28;20038;-87
2023/06/16 07:08:03;;;;;;;2.45;1.67;;;;;;;;;;5018203;28;20037;-85
2023/06/16 07:10:32;;;;;;;4.43;1.70;;;;;;;;;;5010940;28;20087;-86
2023/06/16 07:12:58;;;;;;;3.53;1.63;;;;;;;;;;5021770;28;20029;-86
2023/06/16 07:15:24;;;;;;;4.57;1.60;;;;;;;;;;5021481;28;20041;-87
2023/06/16 07:17:50;;;;;;;1.50;1.40;;;;;;;;;;5027910;28;20041;-89
2023/06/16 07:20:16;;;;;;;2.35;1.60;;;;;;;;;;5010106;28;20053;-86
2023/06/16 07:22:45;;;;;;;1.83;1.40;;;;;;;;;;5021516;28;20101;-88
2023/06/16 07:25:10;;;;;;;1.95;1.35;;;;;;;;;;5022375;28;20034;-88
2023/06/16 07:27:36;;;;;;;2.53;1.67;;;;;;;;;;5011413;28;20033;-88
2023/06/16 07:30:04;;;;;;;1.73;1.40;;;;;;;;;;5013293;28;20034;-88
2023/06/16 07:32:30;;;;;;;2.75;1.60;;;;;;;;;;5021120;28;20449;-87
2023/06/16 07:34:56;;;;;;;2.60;1.50;;;;;;;;;;5013699;28;20022;-88
2023/06/16 07:37:22;;;;;;;1.90;1.65;;;;;;;;;;5020973;28;20032;-88
2023/06/16 07:39:48;;;;;;;2.90;1.92;;;;;;;;;;5015861;28;20270;-88
2023/06/16 07:42:15;;;;;;;1.75;1.48;;;;;;;;;;5017552;28;20074;-88
2023/06/16 07:44:44;;;;;;;3.17;1.80;;;;;;;;;;5014215;28;20068;-88
2023/06/16 07:47:10;;;;;;;2.80;1.98;;;;;;;;;;5016974;28;20528;-87
2023/06/16 07:49:36;;;;;;;1.95;1.58;;;;;;;;;;5014939;28;20155;-87
2023/06/16 07:52:02;;;;;;;2.47;1.67;;;;;;;;;;5029254;28;20021;-88
2023/06/16 07:54:28;;;;;;;1.90;1.50;;;;;;;;;;5011751;28;20037;-86
2023/06/16 07:56:54;;;;;;;1.67;1.48;;;;;;;;;;5028505;28;20079;-86
2023/06/16 07:59:20;;;;;;;3.80;1.70;;;;;;;;;;5019684;28;20040;-87
2023/06/16 08:01:46;;;;;;;3.20;1.80;;;;;;;;;;5016908;28;20739;-87
2023/06/16 08:04:12;;;;;;;2.00;1.58;;;;;;;;;;5026893;28;20029;-88
2023/06/16 08:06:39;;;;;;;1.63;1.40;;;;;;;;;;5028559;28;20030;-88
2023/06/16 08:09:07;;;;;;;2.20;1.88;;;;;;;;;;5023110;28;20026;-88
2023/06/16 08:11:34;;;;;;;2.22;1.58;;;;;;;;;;5020793;28;20025;-87
2023/06/16 08:14:00;;;;;;;2.08;1.67;;;;;;;;;;5009229;28;20545;-87
2023/06/16 08:16:26;;;;;;;3.00;1.83;;;;;;;;;;5019948;28;20112;-87
2023/06/16 08:18:55;;;;;;;2.03;1.50;;;;;;;;;;5009167;28;20041;-86
2023/06/16 08:21:21;;;;;;;1.50;1.40;;;;;;;;;;5013480;28;20083;-86
2023/06/16 08:23:47;;;;;;;1.70;1.60;;;;;;;;;;5009019;28;20030;-89
2023/06/16 08:26:13;;;;;;;1.92;1.55;;;;;;;;;;5020096;28;20101;-88
2023/06/16 08:28:40;;;;;;;3.47;2.00;;;;;;;;;;5009488;28;20437;-88
2023/06/16 08:31:06;;;;;;;2.47;1.75;;;;;;;;;;5023566;28;20468;-87
2023/06/16 08:33:32;;;;;;;4.28;2.10;;;;;;;;;;5023637;28;20520;-89
2023/06/16 08:35:59;;;;;;;1.90;1.48;;;;;;;;;;5032574;28;20246;-89
2023/06/16 08:38:25;;;;;;;3.30;2.17;;;;;;;;;;5031455;28;20026;-88
2023/06/16 08:40:51;;;;;;;1.63;1.50;;;;;;;;;;5018397;28;20065;-89
2023/06/16 08:43:17;;;;;;;2.30;1.50;;;;;;;;;;5018930;28;20018;-85
2023/06/16 08:45:44;;;;;;;2.17;1.67;;;;;;;;;;5027577;28;20060;-87
2023/06/16 08:48:13;;;;;;;3.22;1.85;;;;;;;;;;5023732;28;20029;-87
2023/06/16 08:50:40;;;;;;;2.58;1.52;;;;;;;;;;5019589;28;20018;-87
2023/06/16 08:53:08;;;;;;;1.65;1.40;;;;;;;;;;5030020;28;20029;-89
2023/06/16 08:55:37;;;;;;;2.72;1.70;;;;;;;;;;5028243;28;20108;-87
2023/06/16 08:58:03;;;;;;;2.03;1.40;;;;;;;;;;5002923;28;20026;-87
2023/06/16 09:00:31;;;;;;;1.50;1.40;;;;;;;;;;5017587;28;20072;-86
2023/06/16 09:02:59;;;;;;;1.98;1.73;;;;;;;;;;5015648;28;20021;-87
2023/06/16 09:05:26;;;;;;;2.22;1.70;;;;;;;;;;5019707;28;20140;-88
2023/06/16 09:07:52;;;;;;;2.08;1.67;;;;;;;;;;5022696;28;20022;-86
2023/06/16 09:10:18;;;;;;;1.05;0.90;;;;;;;;;;5036759;28;20033;-89
2023/06/16 09:12:45;;;;;;;2.60;1.15;;;;;;;;;;5032030;28;20025;-89
2023/06/16 09:15:11;;;;;;;1.55;1.42;;;;;;;;;;5024077;28;20079;-91
2023/06/16 09:17:38;;;;;;;1.50;1.17;;;;;;;;;;5027705;28;20085;-88
2023/06/16 09:20:06;;;;;;;1.95;1.40;;;;;;;;;;5028021;28;20057;-88
2023/06/16 09:22:32;;;;;;;1.90;1.45;;;;;;;;;;5027044;28;20061;-88
2023/06/16 09:24:59;;;;;;;2.22;1.70;;;;;;;;;;5027596;28;20076;-89
2023/06/16 09:27:29;;;;;;;1.60;1.35;;;;;;;;;;5023353;28;20120;-88
2023/06/16 09:29:59;;;;;;;1.90;1.13;;;;;;;;;;5026466;28;20088;-87
2023/06/16 09:32:25;;;;;;;1.80;1.40;;;;;;;;;;5026653;28;20061;-88
2023/06/16 09:34:51;;;;;;;1.20;1.10;;;;;;;;;;5023095;28;20492;-88
2023/06/16 09:37:20;;;;;;;1.42;1.27;;;;;;;;;;5013690;28;20109;-88
2023/06/16 09:39:46;;;;;;;1.50;1.33;;;;;;;;;;5017709;28;20392;-87
2023/06/16 09:42:13;;;;;;;2.17;1.50;;;;;;;;;;5027096;28;20402;-89
2023/06/16 09:44:43;;;;;;;2.15;1.80;;;;;;;;;;5017997;28;20030;-88
2023/06/16 09:47:16;;;;;;;1.42;1.30;;;;;;;;;;5019739;28;20036;-88
2023/06/16 09:49:45;;;;;;;2.13;1.23;;;;;;;;;;5026371;28;20121;-88
2023/06/16 09:52:11;;;;;;;1.90;1.33;;;;;;;;;;5019442;28;20472;-88
2023/06/16 09:54:37;;;;;;;1.95;1.35;;;;;;;;;;5023162;28;20022;-89
2023/06/16 09:57:04;;;;;;;1.85;1.60;;;;;;;;;;5027364;28;20025;-86
2023/06/16 09:59:30;;;;;;;1.58;1.40;;;;;;;;;;5019386;28;20069;-89
2023/06/16 10:01:58;;;;;;;1.48;1.38;;;;;;;;;;5018320;28;20021;-88
2023/06/16 10:04:24;;;;;;;1.67;1.25;;;;;;;;;;5029457;28;20659;-89
2023/06/16 10:06:54;;;;;;;1.67;1.42;;;;;;;;;;5017527;28;20037;-87
2023/06/16 10:09:27;;;;;;;1.67;1.27;;;;;;;;;;5031213;28;20562;-87
2023/06/16 10:11:53;;;;;;;1.40;1.10;;;;;;;;;;5018954;28;20109;-89
2023/06/16 10:14:19;;;;;;;1.50;1.40;;;;;;;;;;5029956;28;20029;-90
2023/06/16 10:16:49;;;;;;;1.92;1.20;;;;;;;;;;5023982;28;20034;-88
2023/06/16 10:19:17;;;;;;;1.50;1.25;;;;;;;;;;5022251;28;20038;-86
2023/06/16 10:21:43;;;;;;;1.83;1.42;;;;;;;;;;5023949;28;20076;-88
2023/06/16 10:24:09;;;;;;;1.40;1.25;;;;;;;;;;5019900;28;20025;-88
2023/06/16 10:26:35;;;;;;;1.60;1.30;;;;;;;;;;5017612;28;20060;-87
2023/06/16 10:29:02;;;;;;;2.35;1.50;;;;;;;;;;5011877;28;20057;-87
2023/06/16 10:31:28;;;;;;;2.22;1.42;;;;;;;;;;5014351;28;20084;-88
2023/06/16 10:33:58;;;;;;;3.85;1.42;;;;;;;;;;5013182;28;20104;-88
2023/06/16 10:36:25;;;;;;;3.15;1.55;;;;;;;;;;5028367;28;20125;-89
2023/06/16 10:38:59;;;;;;;2.10;1.58;;;;;;;;;;5022007;28;20527;-87
2023/06/16 10:41:26;;;;;;;2.00;1.70;;;;;;;;;;5023223;28;20126;-87
2023/06/16 10:43:52;;;;;;;2.78;1.33;;;;;;;;;;5019519;28;20030;-87
2023/06/16 10:46:20;;;;;;;2.15;1.40;;;;;;;;;;5016950;28;20033;-88
2023/06/16 10:49:10;;;;;;;1.65;1.20;;;;;;;;;;5015620;28;20030;-89
2023/06/16 10:51:40;;;;;;;2.55;1.42;;;;;;;;;;5019226;28;20025;-86
2023/06/16 10:54:08;;;;;;;1.13;1.02;;;;;;;;;;5017656;28;20036;-82
2023/06/16 10:56:53;;;;;;;1.55;1.45;;;;;;;;;;5011836;28;20084;-82
2023/06/16 10:59:19;;;;;;;1.75;1.30;;;;;;;;;;5020314;28;20034;-82
2023/06/16 11:01:49;;;;;;;2.50;1.60;;;;;;;;;;5015284;28;20037;-82
2023/06/16 11:04:15;;;;;;;1.77;1.27;;;;;;;;;;5021655;28;20477;-84
2023/06/16 11:07:00;;;;;;;1.65;1.50;;;;;;;;;;5024304;28;20507;-88
2023/06/16 11:09:32;;;;;;;4.28;1.80;;;;;;;;;;5018670;28;20508;-85
2023/06/16 11:11:58;;;;;;;1.75;1.50;;;;;;;;;;5030147;28;20064;-86
2023/06/16 11:14:25;;;;;;;1.67;1.33;;;;;;;;;;5018648;28;20385;-81
2023/06/16 11:16:51;;;;;;;2.25;1.70;;;;;;;;;;5025691;28;20049;-80
2023/06/16 11:19:18;;;;;;;1.95;1.58;;;;;;;;;;5019203;28;20024;-80
2023/06/16 11:21:44;;;;;;;2.45;1.48;;;;;;;;;;5026304;28;20048;-80
2023/06/16 11:24:11;;;;;;;2.22;1.33;;;;;;;;;;5028441;28;20033;-81
2023/06/16 11:26:38;;;;;;;2.00;1.60;;;;;;;;;;5028790;28;20029;-82
2023/06/16 11:29:07;;;;;;;1.77;1.38;;;;;;;;;;5025698;28;20224;-81
2023/06/16 11:31:35;;;;;;;2.63;1.33;;;;;;;;;;5023654;28;20060;-80
2023/06/16 11:34:02;;;;;;;2.60;2.00;;;;;;;;;;5008790;28;20025;-81
2023/06/16 11:36:28;;;;;;;1.95;1.55;;;;;;;;;;5019831;28;20026;-81
2023/06/16 11:39:00;;;;;;;2.92;1.70;;;;;;;;;;5019700;28;20083;-80
2023/06/16 11:41:27;;;;;;;2.35;1.30;;;;;;;;;;5027283;28;20084;-79
2023/06/16 11:43:53;;;;;;;2.38;1.52;;;;;;;;;;5027583;28;20014;-79
2023/06/16 11:46:23;;;;;;;2.35;1.58;;;;;;;;;;5009468;28;20125;-78
2023/06/16 11:48:50;;;;;;;1.85;1.60;;;;;;;;;;5014614;28;20111;-79
2023/06/16 11:51:17;;;;;;;2.38;1.50;;;;;;;;;;5022568;28;20044;-78
2023/06/16 11:53:44;;;;;;;1.50;1.40;;;;;;;;;;5025183;28;20017;-79
2023/06/16 11:56:17;;;;;;;2.42;1.52;;;;;;;;;;5021098;28;20022;-79
2023/06/16 11:58:44;;;;;;;2.38;1.45;;;;;;;;;;5008596;28;20022;-79
2023/06/16 12:01:14;;;;;;;1.70;1.38;;;;;;;;;;5008867;28;20036;-79
2023/06/16 12:03:41;;;;;;;2.60;1.30;;;;;;;;;;5019186;28;20029;-79
2023/06/16 12:06:08;;;;;;;3.25;1.90;;;;;;;;;;5008326;28;20149;-79
2023/06/16 12:08:35;;;;;;;2.33;1.45;;;;;;;;;;5009920;28;20033;-79
2023/06/16 12:11:01;;;;;;;5.38;1.60;;;;;;;;;;5027410;28;20388;-78
2023/06/16 12:13:28;;;;;;;1.85;1.40;;;;;;;;;;5025193;28;20029;-77
2023/06/16 12:15:54;;;;;;;6.57;1.90;;;;;;;;;;5032413;28;20103;-78
2023/06/16 12:18:20;;;;;;;2.20;1.30;;;;;;;;;;5031917;28;20033;-78
2023/06/16 12:20:46;;;;;;;2.25;1.30;;;;;;;;;;5021843;28;20045;-78
2023/06/16 12:23:12;;;;;;;2.78;1.67;;;;;;;;;;5016019;28;20037;-79
2023/06/16 12:25:38;;;;;;;2.80;1.98;;;;;;;;;;5020175;28;20507;-79
2023/06/16 12:28:04;;;;;;;3.58;1.48;;;;;;;;;;5015154;28;20029;-79
2023/06/16 12:30:34;;;;;;;3.50;1.90;;;;;;;;;;5021283;28;20038;-79
2023/06/16 12:33:12;;;;;;;2.40;1.60;;;;;;;;;;5016019;28;20386;-79
2023/06/16 12:35:38;;;;;;;1.83;1.50;;;;;;;;;;5029051;28;20476;-77
2023/06/16 12:38:05;;;;;;;4.00;1.25;;;;;;;;;;5027497;28;20472;-77
2023/06/16 12:40:31;;;;;;;1.80;1.60;;;;;;;;;;5024414;28;20104;-77
2023/06/16 12:42:57;;;;;;;2.30;1.27;;;;;;;;;;5019852;28;20060;-76
2023/06/16 12:45:23;;;;;;;1.48;1.27;;;;;;;;;;5016977;28;20128;-77
2023/06/16 12:47:49;;;;;;;2.03;1.45;;;;;;;;;;5014885;28;20422;-78
2023/06/16 12:50:15;;;;;;;2.00;1.50;;;;;;;;;;5015440;28;20065;-77
2023/06/16 12:52:41;;;;;;;1.77;1.40;;;;;;;;;;5022208;28;20018;-77
2023/06/16 12:55:08;;;;;;;2.47;1.65;;;;;;;;;;5023997;28;20037;-77
2023/06/16 12:57:34;;;;;;;2.10;1.70;;;;;;;;;;5023210;28;20028;-77
2023/06/16 13:00:00;;;;;;;3.92;1.70;;;;;;;;;;5017157;28;20033;-76
2023/06/16 13:02:26;;;;;;;1.27;1.13;;;;;;;;;;5013374;28;20025;-76
2023/06/16 13:04:52;;;;;;;1.70;1.50;;;;;;;;;;5016521;28;20026;-81
2023/06/16 13:07:18;;;;;;;2.35;1.75;;;;;;;;;;5027315;28;20713;-84
2023/06/16 13:09:44;;;;;;;2.15;1.70;;;;;;;;;;5018916;28;20037;-81
2023/06/16 13:12:11;;;;;;;1.88;1.38;;;;;;;;;;5018347;28;20034;-79
2023/06/16 13:14:37;;;;;;;2.08;1.60;;;;;;;;;;4994868;28;20041;-79
2023/06/16 13:17:03;;;;;;;2.30;1.80;;;;;;;;;;5027368;28;20040;-83
2023/06/16 13:19:29;;;;;;;1.60;1.40;;;;;;;;;;5017152;28;20029;-86
2023/06/16 13:21:57;;;;;;;2.35;1.80;;;;;;;;;;5016155;28;20036;-81
2023/06/16 13:24:23;;;;;;;6.50;1.92;;;;;;;;;;5015523;28;20030;-81
2023/06/16 13:26:49;;;;;;;3.85;1.98;;;;;;;;;;5016684;28;20034;-82
2023/06/16 13:29:15;;;;;;;3.88;2.53;;;;;;;;;;5021318;28;20125;-82
2023/06/16 13:31:50;;;;;;;4.57;2.65;;;;;;;;;;5025568;28;20055;-82
2023/06/16 13:34:16;;;;;;;3.50;2.67;;;;;;;;;;5016612;28;20063;-78
2023/06/16 13:36:42;;;;;;;5.70;2.80;;;;;;;;;;4997189;28;20408;-82
2023/06/16 13:39:09;;;;;;;7.03;2.75;;;;;;;;;;5026319;28;20026;-87
2023/06/16 13:41:35;;;;;;;8.10;3.08;;;;;;;;;;5020106;28;20025;-78
2023/06/16 13:44:01;;;;;;;4.43;2.58;;;;;;;;;;5017823;28;20033;-81
2023/06/16 13:46:27;;;;;;;7.05;2.63;;;;;;;;;;5018931;28;20034;-82
2023/06/16 13:48:53;;;;;;;5.75;2.90;;;;;;;;;;5018260;28;20018;-85
2023/06/16 13:51:19;;;;;;;4.97;2.63;;;;;;;;;;5011420;28;20430;-84
2023/06/16 13:53:45;;;;;;;6.43;2.83;;;;;;;;;;5019207;28;20029;-83
2023/06/16 13:56:11;;;;;;;6.18;2.28;;;;;;;;;;5019108;28;20025;-83
2023/06/16 13:58:38;;;;;;;3.40;2.08;;;;;;;;;;5001022;28;20125;-84
2023/06/16 14:01:04;;;;;;;6.22;2.08;;;;;;;;;;5004165;28;20021;-84
2023/06/16 14:03:30;;;;;;;6.47;2.33;;;;;;;;;;5003949;28;20116;-83
2023/06/16 14:05:56;;;;;;;5.47;2.50;;;;;;;;;;5004456;28;20029;-83
2023/06/16 14:08:22;;;;;;;4.80;2.38;;;;;;;;;;5025383;28;20032;-83
2023/06/16 14:10:52;;;;;;;3.30;2.50;;;;;;;;;;5012262;28;20156;-83
2023/06/16 14:13:18;;;;;;;4.10;2.42;;;;;;;;;;5026524;28;20075;-82
2023/06/16 14:15:48;;;;;;;5.38;2.13;;;;;;;;;;5016466;28;20025;-84
2023/06/16 14:18:14;;;;;;;5.05;2.58;;;;;;;;;;5000832;28;20113;-85
2023/06/16 14:20:40;;;;;;;3.95;1.90;;;;;;;;;;5013821;28;20068;-84
2023/06/16 14:23:06;;;;;;;4.53;2.40;;;;;;;;;;5019454;28;20026;-78
2023/06/16 14:25:32;;;;;;;4.60;2.75;;;;;;;;;;5023987;28;20033;-81
2023/06/16 14:27:58;;;;;;;2.60;2.20;;;;;;;;;;5010330;28;20029;-80
2023/06/16 14:33:17;;;;;;;9.07;2.63;;;;;;;;;;5011471;28;20062;-80
2023/06/16 14:35:43;;;;;;;4.05;2.30;;;;;;;;;;5015010;28;20032;-80
2023/06/16 14:38:09;;;;;;;4.18;2.08;;;;;;;;;;5018165;28;20034;-81
2023/06/16 14:40:35;;;;;;;3.83;2.10;;;;;;;;;;4995730;28;20270;-81
2023/06/16 14:43:01;;;;;;;3.20;2.10;;;;;;;;;;5011498;28;20033;-80
2023/06/16 14:45:28;;;;;;;2.58;2.05;;;;;;;;;;5011929;28;20049;-81
2023/06/16 14:47:54;;;;;;;5.22;2.25;;;;;;;;;;5028118;28;20026;-80
2023/06/16 14:50:22;;;;;;;5.47;2.25;;;;;;;;;;5021101;28;20392;-80
2023/06/16 14:52:48;;;;;;;3.20;1.80;;;;;;;;;;5023598;28;20663;-78